createdAt,value
2022-10-17T00:00:40.762Z,17.86
2022-10-17T00:03:08.127Z,17.88
2022-10-17T00:05:34.973Z,17.88
2022-10-17T00:08:01.819Z,17.90
2022-10-17T00:10:28.603Z,17.92
2022-10-17T00:12:55.421Z,17.93
2022-10-17T00:15:22.455Z,17.93
2022-10-17T00:17:49.398Z,17.93
2022-10-17T00:20:16.965Z,17.97
2022-10-17T00:22:43.839Z,17.97
2022-10-17T00:25:11.607Z,17.96
2022-10-17T00:27:40.882Z,17.94
2022-10-17T00:30:11.613Z,17.94
2022-10-17T00:32:38.451Z,17.94
2022-10-17T00:35:05.794Z,17.94
2022-10-17T00:37:33.055Z,17.95
2022-10-17T00:40:00.013Z,17.95
2022-10-17T00:42:28.390Z,17.95
2022-10-17T00:45:18.383Z,17.94
2022-10-17T00:47:51.809Z,17.92
2022-10-17T00:50:20.178Z,17.92
2022-10-17T00:52:48.272Z,17.90
2022-10-17T00:55:20.948Z,17.89
2022-10-17T00:57:48.593Z,17.90
2022-10-17T01:00:17.763Z,17.89
2022-10-17T01:02:45.385Z,17.89
2022-10-17T01:05:12.857Z,17.87
2022-10-17T01:07:42.453Z,17.86
2022-10-17T01:10:10.536Z,17.86
2022-10-17T01:12:52.410Z,17.86
2022-10-17T01:15:40.189Z,17.84
2022-10-17T01:18:34.086Z,17.81
2022-10-17T01:21:45.576Z,17.76
2022-10-17T01:24:25.746Z,17.73
2022-10-17T01:27:14.600Z,17.71
2022-10-17T01:29:48.118Z,17.71
2022-10-17T01:32:54.672Z,17.69
2022-10-17T01:35:32.963Z,17.67
2022-10-17T01:38:09.686Z,17.62
2022-10-17T01:40:55.695Z,17.64
2022-10-17T01:43:40.113Z,17.63
2022-10-17T01:46:13.090Z,17.63
2022-10-17T01:48:43.411Z,17.61
2022-10-17T01:51:18.854Z,17.62
2022-10-17T01:54:14.992Z,17.64
2022-10-17T01:56:44.276Z,17.64
2022-10-17T01:59:31.423Z,17.63
2022-10-17T02:01:59.732Z,17.61
2022-10-17T02:04:26.729Z,17.60
2022-10-17T02:06:53.631Z,17.57
2022-10-17T02:09:24.470Z,17.60
2022-10-17T02:12:09.819Z,17.60
2022-10-17T02:14:45.626Z,17.61
2022-10-17T02:17:41.584Z,17.60
2022-10-17T02:20:42.306Z,17.57
2022-10-17T02:25:57.839Z,17.58
2022-10-17T02:28:30.678Z,17.59
2022-10-17T02:31:23.686Z,17.57
2022-10-17T02:33:58.887Z,17.54
2022-10-17T02:36:39.110Z,17.53
2022-10-17T02:39:08.638Z,17.52
2022-10-17T02:41:38.204Z,17.53
2022-10-17T02:44:06.437Z,17.52
2022-10-17T02:46:35.596Z,17.51
2022-10-17T02:49:15.677Z,17.51
2022-10-17T02:51:53.151Z,17.50
2022-10-17T02:54:32.001Z,17.50
2022-10-17T02:57:04.291Z,17.50
2022-10-17T03:02:22.029Z,17.48
2022-10-17T03:04:48.878Z,17.48
2022-10-17T03:07:15.707Z,17.49
2022-10-17T03:09:42.482Z,17.49
2022-10-17T03:12:09.408Z,17.49
2022-10-17T03:14:36.166Z,17.50
2022-10-17T03:17:02.944Z,17.49
2022-10-17T03:19:29.775Z,17.49
2022-10-17T03:21:56.728Z,17.47
2022-10-17T03:24:23.771Z,17.48
2022-10-17T03:26:50.582Z,17.46
2022-10-17T03:29:17.374Z,17.46
2022-10-17T03:31:44.243Z,17.44
2022-10-17T03:34:11.089Z,17.42
2022-10-17T03:36:38.066Z,17.40
2022-10-17T03:39:04.890Z,17.39
2022-10-17T03:41:31.678Z,17.39
2022-10-17T03:43:58.535Z,17.40
2022-10-17T03:46:25.254Z,17.39
2022-10-17T03:48:52.308Z,17.39
2022-10-17T03:51:19.193Z,17.38
2022-10-17T03:53:45.999Z,17.38
2022-10-17T03:56:24.113Z,17.38
2022-10-17T03:58:50.958Z,17.41
2022-10-17T04:01:19.330Z,17.40
2022-10-17T04:03:53.230Z,17.40
2022-10-17T04:06:21.372Z,17.39
2022-10-17T04:08:48.684Z,17.38
2022-10-17T04:11:18.562Z,17.38
2022-10-17T04:13:46.228Z,17.40
2022-10-17T04:16:15.627Z,17.39
2022-10-17T04:18:43.045Z,17.39
2022-10-17T04:21:10.286Z,17.39
2022-10-17T04:23:37.390Z,17.39
2022-10-17T04:26:05.267Z,17.38
2022-10-17T04:28:33.359Z,17.41
2022-10-17T04:31:02.781Z,17.43
2022-10-17T04:33:29.663Z,17.44
2022-10-17T04:36:00.852Z,17.43
2022-10-17T04:38:29.165Z,17.43
2022-10-17T04:41:04.651Z,17.43
2022-10-17T04:43:36.785Z,17.43
2022-10-17T04:46:06.053Z,17.44
2022-10-17T04:48:33.250Z,17.45
2022-10-17T04:51:03.311Z,17.45
2022-10-17T04:53:36.349Z,17.42
2022-10-17T04:56:12.264Z,17.42
2022-10-17T04:58:40.307Z,17.40
2022-10-17T05:01:09.098Z,17.40
2022-10-17T05:03:36.687Z,17.40
2022-10-17T05:06:07.612Z,17.40
2022-10-17T05:08:34.995Z,17.39
2022-10-17T05:11:02.371Z,17.36
2022-10-17T05:13:31.464Z,17.34
2022-10-17T05:16:02.030Z,17.35
2022-10-17T05:18:29.258Z,17.37
2022-10-17T05:20:56.132Z,17.40
2022-10-17T05:23:30.720Z,17.42
2022-10-17T05:25:57.567Z,17.40
2022-10-17T05:28:24.432Z,17.40
2022-10-17T05:30:51.278Z,17.39
2022-10-17T05:33:27.451Z,17.40
2022-10-17T05:35:54.211Z,17.41
2022-10-17T05:38:21.040Z,17.41
2022-10-17T05:40:47.855Z,17.41
2022-10-17T05:43:15.067Z,17.39
2022-10-17T05:45:41.849Z,17.39
2022-10-17T05:48:09.263Z,17.38
2022-10-17T05:50:36.439Z,17.38
2022-10-17T05:53:03.467Z,17.40
2022-10-17T05:55:30.325Z,17.42
2022-10-17T05:57:58.675Z,17.40
2022-10-17T06:00:25.490Z,17.38
2022-10-17T06:02:52.317Z,17.35
2022-10-17T06:05:19.240Z,17.36
2022-10-17T06:07:46.151Z,17.35
2022-10-17T06:10:15.242Z,17.35
2022-10-17T06:12:42.964Z,17.33
2022-10-17T06:15:10.132Z,17.33
2022-10-17T06:17:37.833Z,17.31
2022-10-17T06:20:05.314Z,17.31
2022-10-17T06:22:32.426Z,17.28
2022-10-17T06:24:59.308Z,17.27
2022-10-17T06:27:26.145Z,17.25
2022-10-17T06:29:52.910Z,17.23
2022-10-17T06:32:19.766Z,17.23
2022-10-17T06:34:46.731Z,17.24
2022-10-17T06:37:13.499Z,17.24
2022-10-17T06:39:40.286Z,17.23
2022-10-17T06:42:07.039Z,17.24
2022-10-17T06:44:33.833Z,17.26
2022-10-17T06:47:01.315Z,17.27
2022-10-17T06:49:29.651Z,17.25
2022-10-17T06:51:56.430Z,17.24
2022-10-17T06:54:23.210Z,17.24
2022-10-17T06:56:50.015Z,17.24
2022-10-17T06:59:17.032Z,17.25
2022-10-17T07:01:46.264Z,17.23
2022-10-17T07:04:14.464Z,17.24
2022-10-17T07:06:41.730Z,17.25
2022-10-17T07:09:08.818Z,17.24
2022-10-17T07:11:35.826Z,17.24
2022-10-17T07:14:04.041Z,17.24
2022-10-17T07:16:30.800Z,17.28
2022-10-17T07:18:57.628Z,17.30
2022-10-17T07:21:24.544Z,17.30
2022-10-17T07:23:51.531Z,17.29
2022-10-17T07:26:19.039Z,17.29
2022-10-17T07:28:47.979Z,17.26
2022-10-17T07:31:19.772Z,17.27
2022-10-17T07:36:33.975Z,17.29
2022-10-17T07:39:00.712Z,17.30
2022-10-17T07:41:28.018Z,17.28
2022-10-17T07:43:54.878Z,17.27
2022-10-17T07:46:21.710Z,17.28
2022-10-17T07:48:48.515Z,17.30
2022-10-17T07:51:15.341Z,17.30
2022-10-17T07:53:46.374Z,17.31
2022-10-17T07:56:15.971Z,17.33
2022-10-17T07:58:42.998Z,17.35
2022-10-17T08:01:16.115Z,17.38
2022-10-17T08:03:44.833Z,17.39
2022-10-17T08:06:12.093Z,17.43
2022-10-17T08:08:39.115Z,17.45
2022-10-17T08:11:09.041Z,17.49
2022-10-17T08:13:40.430Z,17.49
2022-10-17T08:16:10.236Z,17.53
2022-10-17T08:18:37.655Z,17.59
2022-10-17T08:21:08.811Z,17.64
2022-10-17T08:23:36.816Z,17.65
2022-10-17T08:26:06.592Z,17.65
2022-10-17T08:28:35.916Z,17.65
2022-10-17T08:31:08.452Z,17.69
2022-10-17T08:33:38.637Z,17.71
2022-10-17T08:36:06.902Z,17.70
2022-10-17T08:38:36.329Z,17.70
2022-10-17T08:41:13.826Z,17.72
2022-10-17T08:44:02.284Z,17.71
2022-10-17T08:46:36.026Z,17.67
2022-10-17T08:49:08.737Z,17.67
2022-10-17T08:51:53.186Z,17.65
2022-10-17T08:54:27.219Z,17.68
2022-10-17T08:56:55.762Z,17.69
2022-10-17T08:59:30.537Z,17.69
2022-10-17T09:02:22.336Z,17.63
2022-10-17T09:05:15.179Z,17.63
2022-10-17T09:07:52.621Z,17.64
2022-10-17T09:10:24.339Z,17.66
2022-10-17T09:12:57.140Z,17.67
2022-10-17T09:15:49.951Z,17.71
2022-10-17T09:18:52.150Z,17.69
2022-10-17T09:21:27.574Z,17.68
2022-10-17T09:24:08.798Z,17.70
2022-10-17T09:26:39.168Z,17.68
2022-10-17T09:29:17.236Z,17.69
2022-10-17T09:31:59.536Z,17.69
2022-10-17T09:34:29.344Z,17.68
2022-10-17T09:37:00.042Z,17.70
2022-10-17T09:39:32.705Z,17.72
2022-10-17T09:42:16.825Z,17.75
2022-10-17T09:45:25.325Z,17.79
2022-10-17T09:48:25.163Z,17.80
2022-10-17T09:51:02.599Z,17.80
2022-10-17T09:53:43.086Z,17.81
2022-10-17T09:56:18.833Z,17.82
2022-10-17T09:58:56.168Z,17.85
2022-10-17T10:01:29.263Z,17.88
2022-10-17T10:04:17.490Z,17.88
2022-10-17T10:07:12.540Z,17.86
2022-10-17T10:09:40.252Z,17.87
2022-10-17T10:12:18.529Z,17.90
2022-10-17T10:14:47.357Z,17.92
2022-10-17T10:17:37.759Z,17.88
2022-10-17T10:20:27.227Z,17.90
2022-10-17T10:23:17.576Z,17.94
2022-10-17T10:25:56.898Z,17.95
2022-10-17T10:28:28.219Z,17.99
2022-10-17T10:30:57.312Z,18.01
2022-10-17T10:33:41.803Z,18.03
2022-10-17T10:36:09.427Z,18.03
2022-10-17T10:38:42.628Z,18.05
2022-10-17T10:41:12.136Z,18.09
2022-10-17T10:43:48.531Z,18.12
2022-10-17T10:46:22.450Z,18.08
2022-10-17T10:49:26.594Z,18.11
2022-10-17T10:51:53.513Z,18.12
2022-10-17T10:54:34.069Z,18.17
2022-10-17T10:57:04.730Z,18.23
2022-10-17T10:59:50.724Z,18.26
2022-10-17T11:02:28.105Z,18.24
2022-10-17T11:05:04.343Z,18.23
2022-10-17T11:07:36.933Z,18.19
2022-10-17T11:10:22.572Z,18.21
2022-10-17T11:13:00.431Z,18.22
2022-10-17T11:15:47.480Z,18.24
2022-10-17T11:18:41.113Z,18.27
2022-10-17T11:21:16.457Z,18.24
2022-10-17T11:23:53.852Z,18.23
2022-10-17T11:26:32.909Z,18.24
2022-10-17T11:29:06.865Z,18.26
2022-10-17T11:31:42.005Z,18.25
2022-10-17T11:34:32.599Z,18.27
2022-10-17T11:37:17.954Z,18.29
2022-10-17T11:39:56.917Z,18.29
2022-10-17T11:42:53.163Z,18.31
2022-10-17T11:45:24.653Z,18.32
2022-10-17T11:48:02.926Z,18.29
2022-10-17T11:53:48.067Z,18.31
2022-10-17T11:56:21.609Z,18.33
2022-10-17T11:59:01.897Z,18.36
2022-10-17T12:01:42.373Z,18.38
2022-10-17T12:04:37.771Z,18.40
2022-10-17T12:07:46.725Z,18.44
2022-10-17T12:10:25.184Z,18.49
2022-10-17T12:12:52.070Z,18.50
2022-10-17T12:15:24.806Z,18.52
2022-10-17T12:18:14.137Z,18.57
2022-10-17T12:20:40.971Z,18.55
2022-10-17T12:23:13.567Z,18.57
2022-10-17T12:25:53.143Z,18.59
2022-10-17T12:28:46.228Z,18.62
2022-10-17T12:31:33.681Z,18.57
2022-10-17T12:34:03.823Z,18.53
2022-10-17T12:36:30.593Z,18.55
2022-10-17T12:39:03.303Z,18.59
2022-10-17T12:41:39.337Z,18.61
2022-10-17T12:44:15.310Z,18.67
2022-10-17T12:46:52.576Z,18.69
2022-10-17T12:49:24.084Z,18.72
2022-10-17T12:52:08.962Z,18.78
2022-10-17T12:54:47.804Z,18.79
2022-10-17T12:57:39.083Z,18.84
2022-10-17T13:00:20.944Z,18.88
2022-10-17T13:02:50.099Z,18.95
2022-10-17T13:05:35.264Z,18.99
2022-10-17T13:08:05.963Z,19.02
2022-10-17T13:10:40.651Z,19.00
2022-10-17T13:13:35.542Z,19.00
2022-10-17T13:16:02.337Z,18.98
2022-10-17T13:18:30.296Z,18.97
2022-10-17T13:21:05.090Z,18.96
2022-10-17T13:23:40.478Z,18.95
2022-10-17T13:26:07.368Z,18.92
2022-10-17T13:28:39.232Z,18.91
2022-10-17T13:31:06.700Z,18.87
2022-10-17T13:33:39.413Z,18.83
2022-10-17T13:36:16.038Z,18.82
2022-10-17T13:38:43.312Z,18.80
2022-10-17T13:44:04.580Z,18.86
2022-10-17T13:46:38.853Z,18.89
2022-10-17T13:49:26.169Z,18.89
2022-10-17T13:51:56.505Z,18.89
2022-10-17T13:54:37.044Z,18.92
2022-10-17T13:57:05.706Z,18.94
2022-10-17T13:59:41.262Z,18.98
2022-10-17T14:02:21.406Z,19.03
2022-10-17T14:05:15.805Z,19.08
2022-10-17T14:08:09.255Z,19.12
2022-10-17T14:10:39.031Z,19.17
2022-10-17T14:13:11.121Z,19.22
2022-10-17T14:15:37.973Z,19.21
2022-10-17T14:18:08.121Z,19.19
2022-10-17T14:23:44.179Z,19.20
2022-10-17T14:26:12.810Z,19.19
2022-10-17T14:28:41.267Z,19.21
2022-10-17T14:31:31.641Z,19.21
2022-10-17T14:33:59.199Z,19.19
2022-10-17T14:36:36.127Z,19.19
2022-10-17T14:39:04.946Z,19.18
2022-10-17T14:41:44.276Z,19.18
2022-10-17T14:44:25.565Z,19.22
2022-10-17T14:47:00.245Z,19.24
2022-10-17T14:49:36.635Z,19.25
2022-10-17T14:52:17.630Z,19.28
2022-10-17T14:54:50.155Z,19.31
2022-10-17T14:57:24.922Z,19.30
2022-10-17T14:59:54.221Z,19.31
2022-10-17T15:02:22.370Z,19.34
2022-10-17T15:04:49.217Z,19.36
2022-10-17T15:07:17.682Z,19.39
2022-10-17T15:09:47.462Z,19.39
2022-10-17T15:12:17.185Z,19.41
2022-10-17T15:14:45.242Z,19.39
2022-10-17T15:17:25.793Z,19.37
2022-10-17T15:19:52.989Z,19.34
2022-10-17T15:22:19.835Z,19.32
2022-10-17T15:25:02.133Z,19.35
2022-10-17T15:27:31.819Z,19.34
2022-10-17T15:29:58.680Z,19.34
2022-10-17T15:32:25.552Z,19.35
2022-10-17T15:34:52.370Z,19.37
2022-10-17T15:37:25.380Z,19.37
2022-10-17T15:39:55.328Z,19.41
2022-10-17T15:42:31.552Z,19.40
2022-10-17T15:44:58.851Z,19.40
2022-10-17T15:47:35.039Z,19.38
2022-10-17T15:50:02.481Z,19.36
2022-10-17T15:52:29.320Z,19.32
2022-10-17T15:54:58.410Z,19.29
2022-10-17T15:57:31.336Z,19.26
2022-10-17T16:00:00.393Z,19.23
2022-10-17T16:02:27.287Z,19.20
2022-10-17T16:04:54.363Z,19.19
2022-10-17T16:07:21.950Z,19.17
2022-10-17T16:09:48.716Z,19.14
2022-10-17T16:12:24.173Z,19.15
2022-10-17T16:14:50.979Z,19.12
2022-10-17T16:17:18.270Z,19.08
2022-10-17T16:19:45.160Z,19.04
2022-10-17T16:22:27.912Z,19.00
2022-10-17T16:24:59.143Z,18.97
2022-10-17T16:27:26.643Z,18.95
2022-10-17T16:29:53.411Z,18.94
2022-10-17T16:32:20.214Z,18.90
2022-10-17T16:34:47.058Z,18.84
2022-10-17T16:37:13.876Z,18.80
2022-10-17T16:39:40.751Z,18.78
2022-10-17T16:42:07.533Z,18.77
2022-10-17T16:44:34.315Z,18.76
2022-10-17T16:47:01.227Z,18.71
2022-10-17T16:49:27.975Z,18.68
2022-10-17T16:51:54.814Z,18.64
2022-10-17T16:54:21.560Z,18.59
2022-10-17T16:56:49.282Z,18.61
2022-10-17T16:59:16.267Z,18.61
2022-10-17T17:01:43.046Z,18.59
2022-10-17T17:04:09.824Z,18.54
2022-10-17T17:06:37.522Z,18.51
2022-10-17T17:09:04.490Z,18.49
2022-10-17T17:11:32.636Z,18.48
2022-10-17T17:14:01.892Z,18.45
2022-10-17T17:16:30.155Z,18.43
2022-10-17T17:19:08.389Z,18.38
2022-10-17T17:21:35.409Z,18.34
2022-10-17T17:24:03.696Z,18.29
2022-10-17T17:26:39.134Z,18.26
2022-10-17T17:29:05.937Z,18.23
2022-10-17T17:31:34.709Z,18.21
2022-10-17T17:34:03.119Z,18.21
2022-10-17T17:36:33.915Z,18.20
2022-10-17T17:39:02.833Z,18.14
2022-10-17T17:41:30.192Z,18.14
2022-10-17T17:43:57.556Z,18.14
2022-10-17T17:46:25.257Z,18.14
2022-10-17T17:48:53.459Z,18.12
2022-10-17T17:51:29.418Z,18.09
2022-10-17T17:53:57.281Z,18.05
2022-10-17T17:56:29.066Z,18.05
2022-10-17T17:58:58.632Z,18.03
2022-10-17T18:01:28.466Z,18.01
2022-10-17T18:03:56.672Z,18.01
2022-10-17T18:06:23.583Z,17.98
2022-10-17T18:08:53.325Z,17.95
2022-10-17T18:11:22.081Z,17.93
2022-10-17T18:13:57.975Z,17.89
2022-10-17T18:16:26.516Z,17.83
2022-10-17T18:18:53.550Z,17.81
2022-10-17T18:21:20.317Z,17.77
2022-10-17T18:23:48.663Z,17.74
2022-10-17T18:26:16.128Z,17.68
2022-10-17T18:28:43.911Z,17.66
2022-10-17T18:31:22.362Z,17.65
2022-10-17T18:33:51.965Z,17.66
2022-10-17T18:36:19.571Z,17.67
2022-10-17T18:38:46.433Z,17.64
2022-10-17T18:41:16.691Z,17.63
2022-10-17T18:43:45.401Z,17.59
2022-10-17T18:46:21.065Z,17.55
2022-10-17T18:48:49.319Z,17.54
2022-10-17T18:51:18.998Z,17.53
2022-10-17T18:53:48.505Z,17.52
2022-10-17T18:56:15.703Z,17.53
2022-10-17T18:58:42.833Z,17.52
2022-10-17T19:01:15.957Z,17.51
2022-10-17T19:03:44.286Z,17.49
2022-10-17T19:06:13.029Z,17.51
2022-10-17T19:08:40.408Z,17.51
2022-10-17T19:11:09.562Z,17.50
2022-10-17T19:13:37.111Z,17.47
2022-10-17T19:16:08.967Z,17.46
2022-10-17T19:18:36.264Z,17.45
2022-10-17T19:21:05.023Z,17.42
2022-10-17T19:23:39.034Z,17.40
2022-10-17T19:26:07.876Z,17.40
2022-10-17T19:28:40.068Z,17.39
2022-10-17T19:31:07.302Z,17.36
2022-10-17T19:33:34.984Z,17.32
2022-10-17T19:36:17.155Z,17.29
2022-10-17T19:38:44.253Z,17.27
2022-10-17T19:41:13.579Z,17.25
2022-10-17T19:43:42.510Z,17.22
2022-10-17T19:46:14.432Z,17.16
2022-10-17T19:48:41.536Z,17.09
2022-10-17T19:51:11.321Z,17.08
2022-10-17T19:53:38.253Z,17.06
2022-10-17T19:56:05.912Z,17.02
2022-10-17T19:58:36.395Z,16.97
2022-10-17T20:01:05.789Z,16.94
2022-10-17T20:03:36.871Z,16.92
2022-10-17T20:06:04.908Z,16.93
2022-10-17T20:08:31.863Z,16.90
2022-10-17T20:11:10.517Z,16.90
2022-10-17T20:13:38.402Z,16.86
2022-10-17T20:16:06.849Z,16.84
2022-10-17T20:18:34.133Z,16.83
2022-10-17T20:21:07.566Z,16.82
2022-10-17T20:23:34.811Z,16.80
2022-10-17T20:26:25.407Z,16.79
2022-10-17T20:28:53.452Z,16.80
2022-10-17T20:31:21.012Z,16.77
2022-10-17T20:33:47.850Z,16.75
2022-10-17T20:36:15.217Z,16.73
2022-10-17T20:38:42.064Z,16.70
2022-10-17T20:41:10.357Z,16.71
2022-10-17T20:43:37.885Z,16.75
2022-10-17T20:46:22.926Z,16.70
2022-10-17T20:48:53.122Z,16.64
2022-10-17T20:51:21.360Z,16.61
2022-10-17T20:53:49.178Z,16.59
2022-10-17T20:56:24.447Z,16.60
2022-10-17T20:58:58.607Z,16.60
2022-10-17T21:01:27.086Z,16.59
2022-10-17T21:03:54.405Z,16.58
2022-10-17T21:06:22.252Z,16.56
2022-10-17T21:08:50.120Z,16.52
2022-10-17T21:11:23.793Z,16.46
2022-10-17T21:13:56.359Z,16.36
2022-10-17T21:16:23.323Z,16.27
2022-10-17T21:18:50.299Z,16.17
2022-10-17T21:21:21.225Z,16.11
2022-10-17T21:23:49.923Z,16.05
2022-10-17T21:26:18.230Z,16.03
2022-10-17T21:28:46.388Z,15.99
2022-10-17T21:31:18.457Z,15.92
2022-10-17T21:33:48.266Z,15.92
2022-10-17T21:36:17.010Z,15.87
2022-10-17T21:38:45.680Z,15.82
2022-10-17T21:41:14.685Z,15.77
2022-10-17T21:43:43.158Z,15.73
2022-10-17T21:46:13.541Z,15.72
2022-10-17T21:48:40.801Z,15.69
2022-10-17T21:51:13.473Z,15.67
2022-10-17T21:53:40.965Z,15.62
2022-10-17T21:56:11.307Z,15.62
2022-10-17T21:58:38.662Z,15.65
2022-10-17T22:01:09.702Z,15.65
2022-10-17T22:03:42.591Z,15.67
2022-10-17T22:09:02.553Z,15.68
2022-10-17T22:11:35.339Z,15.70
2022-10-17T22:14:03.536Z,15.71
2022-10-17T22:16:30.338Z,15.70
2022-10-17T22:19:04.931Z,15.68
2022-10-17T22:21:34.046Z,15.66
2022-10-17T22:24:03.291Z,15.64
2022-10-17T22:26:32.217Z,15.59
2022-10-17T22:28:59.325Z,15.53
2022-10-17T22:31:26.727Z,15.50
2022-10-17T22:33:53.598Z,15.50
2022-10-17T22:36:20.429Z,15.51
2022-10-17T22:38:47.294Z,15.50
2022-10-17T22:41:14.033Z,15.52
2022-10-17T22:43:40.824Z,15.51
2022-10-17T22:46:08.302Z,15.51
2022-10-17T22:48:35.256Z,15.53
2022-10-17T22:51:02.025Z,15.55
2022-10-17T22:53:30.187Z,15.54
2022-10-17T22:56:02.297Z,15.51
2022-10-17T22:58:30.845Z,15.46
2022-10-17T23:00:58.271Z,15.44
2022-10-17T23:03:33.198Z,15.41
2022-10-17T23:06:00.740Z,15.41
2022-10-17T23:08:28.558Z,15.40
2022-10-17T23:10:55.409Z,15.35
2022-10-17T23:13:25.660Z,15.31
2022-10-17T23:15:57.507Z,15.24
2022-10-17T23:18:25.900Z,15.18
2022-10-17T23:20:53.448Z,15.14
2022-10-17T23:23:29.067Z,15.15
2022-10-17T23:25:56.600Z,15.14
2022-10-17T23:28:23.506Z,15.13
2022-10-17T23:30:50.263Z,15.14
2022-10-17T23:33:17.035Z,15.15
2022-10-17T23:35:43.983Z,15.14
2022-10-17T23:38:11.596Z,15.12
2022-10-17T23:40:38.392Z,15.08
2022-10-17T23:43:05.261Z,15.08
2022-10-17T23:45:34.787Z,15.05
2022-10-17T23:48:05.289Z,15.04
2022-10-17T23:50:32.215Z,15.00
2022-10-17T23:52:59.280Z,14.97
2022-10-17T23:55:26.191Z,14.93
2022-10-17T23:57:53.466Z,14.90
